Airfield :
LOGIN :

Register | Disclaimer

   EN    FR    IT 

 










Legend :    VFR   Marginal VFR   IFR   Intensive IFR   Very Intensive IFR
Visi :
Ceiling :
>= 8 km
>= 3000ft
5 to 8 km
1000 to 3000 ft
1500m to 5 km
500 to 1000 ft
800 to 1500m
200 to 500 ft
< 800m
< 200 ft
Symbols :   Thunderstorms  Fog  Heavy snow  Heavy precipitations  Wind > 20 kt
SIGMETs :     Misc.  Thunderstorms  Icing  Turbulence  Mountain Waves  Volcanic Ashes







- Airport Elevation : 1966 ft
- IATA code : SGE


EDGS - Siegerland

CURRENT METAR :
  • 250820Z 24012KT 7000 -RADZ SCT007 BKN011 10/09 Q1010

EXPIRED METARs :
  • 250750Z 23015KT 9999 SCT008 BKN014 10/08 Q1010
  • 250720Z 24010G20KT 9999 SCT009 BKN014 10/08 Q1010
  • 250650Z 24013KT 9999 SCT011 BKN016 10/08 Q1010
  • 250620Z 25010G20KT 9999 SCT010 BKN015 10/08 Q1010
  • 250550Z 23012KT 9999 SCT011 BKN017 10/08 Q1009

TAF TAF EDGS
Valid from the 25 at 09:00 until the 25 at 18:00 UTC


250800Z 2509/2518 26014KT 9999 SCT008 BKN020
PROB40
TEMPO 2509/2512 26020G35KT 4000 SHRA BKN008TCU
TEMPO 2512/2516 28020G30KT
No reported NOTAMs for that airfield.



MET'MAP, your aeronautical weather chart ! - Copyright ORBIFLY December 2007 - Disclaimer

ORBIFLY MET'MAP TEAM :

Programming & Development : Alexandra Zaïnal
Concept & Development : Baudouin d'Aumeries
Co-Development & Prog : Marc-Olivier Méhu
Technical & hardware support : Manuel Goepfert

Contact : metmap@orbifly.com




SOURCES & CREDITS :

   NOAA